Airfield :
LOGIN :

Register | Disclaimer

   EN    FR    IT 

 










Legend :    VFR   Marginal VFR   IFR   Intensive IFR   Very Intensive IFR
Visi :
Ceiling :
>= 8 km
>= 3000ft
5 to 8 km
1000 to 3000 ft
1500m to 5 km
500 to 1000 ft
800 to 1500m
200 to 500 ft
< 800m
< 200 ft
Symbols :   Thunderstorms  Fog  Heavy snow  Heavy precipitations  Wind > 20 kt
SIGMETs :     Misc.  Thunderstorms  Icing  Turbulence  Mountain Waves  Volcanic Ashes






- Airport Elevation : 8 ft
- IATA code : LCA


LCLK - Larnaca Int.

CURRENT METAR :
  • 151930Z 10032G46KT 9999 -TSRA FEW040CB 27/18 Q1013 NOSIG

EXPIRED METARs :
  • 151900Z 14016G30KT 100V180 9999 -TSRA FEW040CB 28/18 Q1014 NOSIG
  • 151830Z 16016G32KT 9999 -TSRA FEW040CB 28/19 Q1015 NOSIG
  • 151800Z 12014KT 9999 TS FEW040CB 28/20 Q1013 NOSIG
  • 151730Z 08006KT 9999 FEW040CB 27/22 Q1013 NOSIG
  • 151700Z 04009KT 9999 FEW040TCU 27/21 Q1013 NOSIG

TAF TAF LCLK
Valid from the 15 at 18:00 until the 16 at 18:00 UTC


151730Z 1518/1618 35009KT 9999 FEW025
BECMG 1606/1609 06012KT
BECMG 1609/1612 21014KT



MET'MAP, your aeronautical weather chart ! - Copyright ORBIFLY December 2007 - Disclaimer

ORBIFLY MET'MAP TEAM :

Programming & Development : Alexandra Zaïnal
Concept & Development : Baudouin d'Aumeries
Co-Development & Prog : Marc-Olivier Méhu
Technical & hardware support : Manuel Goepfert

Contact : metmap@orbifly.com




SOURCES & CREDITS :

   NOAA